sensor_id;sensor_type;location;lat;lon;timestamp;pressure;altitude;pressure_sealevel;temperature;humidity
22775;BME280;11554;51.106;3.684;2023-02-28T00:00:00;103059.63999999998;;;-1.36;94.86
22775;BME280;11554;51.106;3.684;2023-02-28T00:05:00;103063.65000000001;;;-1.50;94.6
22775;BME280;11554;51.106;3.684;2023-02-28T00:10:00;103067.46;;;-1.49;95.71
22775;BME280;11554;51.106;3.684;2023-02-28T00:15:00;103058.73999999999;;;-1.59;95.96
22775;BME280;11554;51.106;3.684;2023-02-28T00:20:00;103054.61;;;-1.58;96.98
22775;BME280;11554;51.106;3.684;2023-02-28T00:25:00;103053.98;;;-1.52;97.52
22775;BME280;11554;51.106;3.684;2023-02-28T00:30:00;103054.24;;;-1.36;98.38
22775;BME280;11554;51.106;3.684;2023-02-28T00:35:00;103058.04000000001;;;-1.42;97.81
22775;BME280;11554;51.106;3.684;2023-02-28T00:40:00;103057.09999999999;;;-1.46;98.07
22775;BME280;11554;51.106;3.684;2023-02-28T00:45:00;103060.35999999999;;;-1.56;98.24
22775;BME280;11554;51.106;3.684;2023-02-28T00:50:00;103061.77;;;-1.60;98.24
22775;BME280;11554;51.106;3.684;2023-02-28T00:55:00;103059.85;;;-1.53;99.44
22775;BME280;11554;51.106;3.684;2023-02-28T01:00:00;103060.67;;;-1.65;99.17
22775;BME280;11554;51.106;3.684;2023-02-28T01:05:00;103060.89;;;-1.76;99.47
22775;BME280;11554;51.106;3.684;2023-02-28T01:10:00;103075.54000000001;;;-1.74;100.0
22775;BME280;11554;51.106;3.684;2023-02-28T01:15:00;103071.17000000001;;;-1.86;100.0
22775;BME280;11554;51.106;3.684;2023-02-28T01:20:00;103076.62;;;-1.85;100.0
22775;BME280;11554;51.106;3.684;2023-02-28T01:25:00;103072.51000000001;;;-1.86;100.0
22775;BME280;11554;51.106;3.684;2023-02-28T01:30:00;103076.33;;;-1.74;100.0
22775;BME280;11554;51.106;3.684;2023-02-28T01:35:00;103071.11;;;-1.73;100.0
22775;BME280;11554;51.106;3.684;2023-02-28T01:40:00;103060.81999999999;;;-1.73;100.0
22775;BME280;11554;51.106;3.684;2023-02-28T01:45:02;103058.84000000001;;;-1.79;100.0
22775;BME280;11554;51.106;3.684;2023-02-28T01:50:00;103060.53;;;-1.75;100.0
22775;BME280;11554;51.106;3.684;2023-02-28T01:55:00;103060.86;;;-1.93;100.0
22775;BME280;11554;51.106;3.684;2023-02-28T02:00:00;103062.74;;;-1.97;100.0
22775;BME280;11554;51.106;3.684;2023-02-28T02:05:00;103055.09999999999;;;-2.05;100.0
22775;BME280;11554;51.106;3.684;2023-02-28T02:10:00;103050.9;;;-2.03;100.0
22775;BME280;11554;51.106;3.684;2023-02-28T02:15:01;103049.93;;;-2.07;100.0
22775;BME280;11554;51.106;3.684;2023-02-28T02:25:07;103044.68999999999;;;-2.27;100.0
22775;BME280;11554;51.106;3.684;2023-02-28T02:30:05;103041.83;;;-2.15;100.0
22775;BME280;11554;51.106;3.684;2023-02-28T02:35:01;103032.58;;;-2.05;100.0
22775;BME280;11554;51.106;3.684;2023-02-28T02:40:02;103031.14;;;-1.85;100.0
22775;BME280;11554;51.106;3.684;2023-02-28T02:45:00;103023.83;;;-1.71;100.0
22775;BME280;11554;51.106;3.684;2023-02-28T02:50:01;103032.37;;;-1.84;100.0
22775;BME280;11554;51.106;3.684;2023-02-28T02:55:00;103040.12;;;-1.95;100.0
22775;BME280;11554;51.106;3.684;2023-02-28T03:00:00;103038.75;;;-2.01;100.0
22775;BME280;11554;51.106;3.684;2023-02-28T03:05:01;103041.28;;;-2.04;100.0
22775;BME280;11554;51.106;3.684;2023-02-28T03:10:00;103038.43999999999;;;-2.06;100.0
22775;BME280;11554;51.106;3.684;2023-02-28T03:15:03;103038.54;;;-2.06;100.0
22775;BME280;11554;51.106;3.684;2023-02-28T03:20:01;103034.61;;;-1.99;100.0
22775;BME280;11554;51.106;3.684;2023-02-28T03:25:01;103034.11000000002;;;-1.89;100.0
22775;BME280;11554;51.106;3.684;2023-02-28T03:30:00;103041.37000000001;;;-1.74;100.0
22775;BME280;11554;51.106;3.684;2023-02-28T03:35:00;103034.07999999999;;;-1.78;100.0
22775;BME280;11554;51.106;3.684;2023-02-28T03:40:00;103033.44;;;-1.72;100.0
22775;BME280;11554;51.106;3.684;2023-02-28T03:45:00;103034.98999999999;;;-1.57;100.0
22775;BME280;11554;51.106;3.684;2023-02-28T03:50:01;103034.02;;;-1.49;100.0
22775;BME280;11554;51.106;3.684;2023-02-28T03:55:00;103033.56000000001;;;-1.38;100.0
22775;BME280;11554;51.106;3.684;2023-02-28T04:00:02;103039.39;;;-1.28;100.0
22775;BME280;11554;51.106;3.684;2023-02-28T04:05:00;103036.65000000001;;;-1.19;100.0
22775;BME280;11554;51.106;3.684;2023-02-28T04:10:00;103032.59000000001;;;-1.06;100.0
22775;BME280;11554;51.106;3.684;2023-02-28T04:15:00;103042.60999999999;;;-1.03;100.0
22775;BME280;11554;51.106;3.684;2023-02-28T04:20:00;103039.28000000001;;;-0.93;100.0
22775;BME280;11554;51.106;3.684;2023-02-28T04:25:00;103035.53;;;-0.82;100.0
22775;BME280;11554;51.106;3.684;2023-02-28T04:30:00;103038.04000000001;;;-0.70;100.0
22775;BME280;11554;51.106;3.684;2023-02-28T04:35:00;103047.79000000001;;;-0.64;100.0
22775;BME280;11554;51.106;3.684;2023-02-28T04:40:00;103055.46999999999;;;-0.52;100.0
22775;BME280;11554;51.106;3.684;2023-02-28T04:45:00;103054.15000000001;;;-0.41;100.0
22775;BME280;11554;51.106;3.684;2023-02-28T04:50:00;103055.26;;;-0.31;100.0
22775;BME280;11554;51.106;3.684;2023-02-28T04:55:00;103057.78;;;-0.24;100.0
22775;BME280;11554;51.106;3.684;2023-02-28T05:00:00;103057.04000000001;;;-0.17;100.0
22775;BME280;11554;51.106;3.684;2023-02-28T05:05:00;103051.16;;;-0.15;100.0
22775;BME280;11554;51.106;3.684;2023-02-28T05:10:00;103055.79000000001;;;-0.03;100.0
22775;BME280;11554;51.106;3.684;2023-02-28T05:15:00;103055.46999999999;;;0.08;100.0
22775;BME280;11554;51.106;3.684;2023-02-28T05:20:00;103059.16;;;0.06;100.0
22775;BME280;11554;51.106;3.684;2023-02-28T05:25:00;103059.57;;;0.03;100.0
22775;BME280;11554;51.106;3.684;2023-02-28T05:30:00;103055.68000000001;;;0.04;100.0
22775;BME280;11554;51.106;3.684;2023-02-28T05:35:00;103064.25;;;0.09;100.0
22775;BME280;11554;51.106;3.684;2023-02-28T05:40:00;103057.06999999999;;;0.17;100.0
22775;BME280;11554;51.106;3.684;2023-02-28T05:45:00;103059.06;;;0.18;100.0
22775;BME280;11554;51.106;3.684;2023-02-28T05:50:00;103064.20000000001;;;0.15;100.0
22775;BME280;11554;51.106;3.684;2023-02-28T05:55:00;103068.15;;;0.17;100.0
22775;BME280;11554;51.106;3.684;2023-02-28T06:00:00;103069.92;;;0.26;100.0
22775;BME280;11554;51.106;3.684;2023-02-28T06:05:00;103074.73999999999;;;0.27;100.0
22775;BME280;11554;51.106;3.684;2023-02-28T06:10:00;103079.93;;;0.38;100.0
22775;BME280;11554;51.106;3.684;2023-02-28T06:15:00;103081.97;;;0.46;100.0
22775;BME280;11554;51.106;3.684;2023-02-28T06:20:00;103083.89;;;0.60;100.0
22775;BME280;11554;51.106;3.684;2023-02-28T06:25:00;103089.16999999998;;;0.68;100.0
22775;BME280;11554;51.106;3.684;2023-02-28T06:30:00;103090.03;;;0.70;100.0
22775;BME280;11554;51.106;3.684;2023-02-28T06:35:00;103090.88999999998;;;0.73;100.0
22775;BME280;11554;51.106;3.684;2023-02-28T06:40:00;103097.2;;;0.80;100.0
22775;BME280;11554;51.106;3.684;2023-02-28T06:45:00;103090.11;;;0.82;100.0
22775;BME280;11554;51.106;3.684;2023-02-28T06:50:00;103099.33000000002;;;0.84;100.0
22775;BME280;11554;51.106;3.684;2023-02-28T06:55:00;103091.86;;;0.90;100.0
22775;BME280;11554;51.106;3.684;2023-02-28T07:00:00;103098.6;;;0.95;100.0
22775;BME280;11554;51.106;3.684;2023-02-28T07:05:00;103091.47;;;1.00;100.0
22775;BME280;11554;51.106;3.684;2023-02-28T07:10:00;103092.31;;;1.05;100.0
22775;BME280;11554;51.106;3.684;2023-02-28T07:15:00;103089.87999999999;;;1.10;100.0
22775;BME280;11554;51.106;3.684;2023-02-28T07:20:00;103095.97000000002;;;1.19;100.0
22775;BME280;11554;51.106;3.684;2023-02-28T07:25:00;103101.23000000001;;;1.30;100.0
22775;BME280;11554;51.106;3.684;2023-02-28T07:30:00;103085.95;;;1.39;99.94
22775;BME280;11554;51.106;3.684;2023-02-28T07:35:00;103086.29000000001;;;1.46;99.17
22775;BME280;11554;51.106;3.684;2023-02-28T07:40:00;103093.18000000001;;;1.55;97.7
22775;BME280;11554;51.106;3.684;2023-02-28T07:45:00;103092.80000000002;;;1.65;97.29
22775;BME280;11554;51.106;3.684;2023-02-28T07:50:00;103091.56;;;1.74;95.18
22775;BME280;11554;51.106;3.684;2023-02-28T07:55:00;103089.60999999999;;;1.80;94.06
22775;BME280;11554;51.106;3.684;2023-02-28T08:00:00;103083.87;;;1.85;92.85
22775;BME280;11554;51.106;3.684;2023-02-28T08:05:00;103085.03;;;1.88;91.91
22775;BME280;11554;51.106;3.684;2023-02-28T08:10:00;103084.94;;;1.87;90.88
22775;BME280;11554;51.106;3.684;2023-02-28T08:15:00;103092.76;;;1.88;90.88
22775;BME280;11554;51.106;3.684;2023-02-28T08:20:00;103087.06999999999;;;1.94;91.0
22775;BME280;11554;51.106;3.684;2023-02-28T08:25:00;103078.23000000001;;;2.01;91.31
22775;BME280;11554;51.106;3.684;2023-02-28T08:30:00;103080.09;;;2.13;91.76
22775;BME280;11554;51.106;3.684;2023-02-28T08:35:00;103077.73;;;2.16;91.56
22775;BME280;11554;51.106;3.684;2023-02-28T08:40:00;103086.15999999999;;;2.26;91.38
22775;BME280;11554;51.106;3.684;2023-02-28T08:45:00;103096.39;;;2.22;87.8
22775;BME280;11554;51.106;3.684;2023-02-28T08:50:00;103092.27;;;2.12;83.05
22775;BME280;11554;51.106;3.684;2023-02-28T08:55:00;103095.39;;;2.13;83.5
22775;BME280;11554;51.106;3.684;2023-02-28T09:00:00;103100.84999999999;;;2.15;82.69
22775;BME280;11554;51.106;3.684;2023-02-28T09:05:00;103101.05;;;2.25;82.04
22775;BME280;11554;51.106;3.684;2023-02-28T09:10:00;103107.41;;;2.36;81.9
22775;BME280;11554;51.106;3.684;2023-02-28T09:15:00;103106.46999999999;;;2.38;81.82
22775;BME280;11554;51.106;3.684;2023-02-28T09:20:00;103097.74;;;2.54;82.57
22775;BME280;11554;51.106;3.684;2023-02-28T09:25:00;103105.18999999999;;;2.56;82.35
22775;BME280;11554;51.106;3.684;2023-02-28T09:30:00;103105.54;;;2.53;80.87
22775;BME280;11554;51.106;3.684;2023-02-28T09:35:00;103103.48;;;2.57;80.72
22775;BME280;11554;51.106;3.684;2023-02-28T09:40:00;103103.09;;;2.51;80.61
22775;BME280;11554;51.106;3.684;2023-02-28T09:45:00;103114.18000000001;;;2.53;81.36
22775;BME280;11554;51.106;3.684;2023-02-28T09:50:02;103094.91;;;2.46;81.63
22775;BME280;11554;51.106;3.684;2023-02-28T09:55:00;103079.61;;;2.61;81.79
22775;BME280;11554;51.106;3.684;2023-02-28T10:00:03;103085.56000000001;;;2.67;80.22
22775;BME280;11554;51.106;3.684;2023-02-28T10:05:00;103099.37999999999;;;2.74;80.83
22775;BME280;11554;51.106;3.684;2023-02-28T10:10:01;103091.31;;;2.73;79.6
22775;BME280;11554;51.106;3.684;2023-02-28T10:15:00;103080.52;;;2.82;76.32
22775;BME280;11554;51.106;3.684;2023-02-28T10:20:00;103098.93999999999;;;2.80;74.27
22775;BME280;11554;51.106;3.684;2023-02-28T10:25:00;103087.66;;;2.79;72.81
22775;BME280;11554;51.106;3.684;2023-02-28T10:30:00;103093.54000000001;;;2.86;71.64
22775;BME280;11554;51.106;3.684;2023-02-28T10:35:00;103074.63;;;3.31;70.7
22775;BME280;11554;51.106;3.684;2023-02-28T10:40:00;103075.50000000001;;;3.72;68.23
22775;BME280;11554;51.106;3.684;2023-02-28T10:50:00;103072.62000000001;;;3.53;66.7
22775;BME280;11554;51.106;3.684;2023-02-28T11:00:06;103045.07;;;3.77;65.61
22775;BME280;11554;51.106;3.684;2023-02-28T11:05:00;103041.48;;;3.75;65.31
22775;BME280;11554;51.106;3.684;2023-02-28T11:10:00;103036.15;;;3.96;64.83
22775;BME280;11554;51.106;3.684;2023-02-28T11:15:02;103029.38999999998;;;4.71;64.01
22775;BME280;11554;51.106;3.684;2023-02-28T11:20:01;103020.89000000001;;;4.86;62.25
22775;BME280;11554;51.106;3.684;2023-02-28T11:25:00;103016.5;;;4.92;62.97
22775;BME280;11554;51.106;3.684;2023-02-28T11:30:00;103009.48000000001;;;5.59;62.76
22775;BME280;11554;51.106;3.684;2023-02-28T11:35:00;103003.28;;;5.08;61.6
22775;BME280;11554;51.106;3.684;2023-02-28T11:40:00;103005.26999999999;;;5.63;62.81
22775;BME280;11554;51.106;3.684;2023-02-28T11:45:03;103002.55;;;5.91;61.92
22775;BME280;11554;51.106;3.684;2023-02-28T11:50:04;102994.75;;;6.15;62.42
22775;BME280;11554;51.106;3.684;2023-02-28T11:55:02;102993.65000000001;;;6.15;61.05
22775;BME280;11554;51.106;3.684;2023-02-28T12:00:01;102991.23999999999;;;5.85;60.81
22775;BME280;11554;51.106;3.684;2023-02-28T12:05:05;102981.15000000001;;;6.07;59.46
22775;BME280;11554;51.106;3.684;2023-02-28T12:10:02;102975.04;;;6.46;60.15
22775;BME280;11554;51.106;3.684;2023-02-28T12:15:04;102975.84999999999;;;6.60;59.38
22775;BME280;11554;51.106;3.684;2023-02-28T12:20:02;102973.39;;;6.74;59.94
22775;BME280;11554;51.106;3.684;2023-02-28T12:25:05;102954.43000000001;;;6.53;59.26
22775;BME280;11554;51.106;3.684;2023-02-28T12:30:01;102945.31999999999;;;6.56;58.21
22775;BME280;11554;51.106;3.684;2023-02-28T12:35:01;102937.77;;;6.72;57.47
22775;BME280;11554;51.106;3.684;2023-02-28T12:40:00;102939.22;;;6.93;54.17
22775;BME280;11554;51.106;3.684;2023-02-28T12:45:01;102935.79;;;6.58;53.24
22775;BME280;11554;51.106;3.684;2023-02-28T12:50:02;102926.71;;;6.84;54.3
22775;BME280;11554;51.106;3.684;2023-02-28T12:55:01;102929.06;;;6.79;53.54
22775;BME280;11554;51.106;3.684;2023-02-28T13:00:00;102911.49;;;6.75;52.37
22775;BME280;11554;51.106;3.684;2023-02-28T13:05:03;102908.72;;;6.79;50.64
22775;BME280;11554;51.106;3.684;2023-02-28T13:10:00;102909.94;;;6.65;51.83
22775;BME280;11554;51.106;3.684;2023-02-28T13:15:02;102908.99999999999;;;6.74;50.36
22775;BME280;11554;51.106;3.684;2023-02-28T13:20:00;102899.48;;;6.89;51.12
22775;BME280;11554;51.106;3.684;2023-02-28T13:25:00;102904.13;;;6.84;51.68
22775;BME280;11554;51.106;3.684;2023-02-28T13:30:00;102902.36;;;6.67;50.66
22775;BME280;11554;51.106;3.684;2023-02-28T13:40:06;102902.74999999999;;;6.48;50.56
22775;BME280;11554;51.106;3.684;2023-02-28T13:55:06;102890.00000000001;;;6.94;51.54
22775;BME280;11554;51.106;3.684;2023-02-28T14:00:02;102889.16999999998;;;6.91;49.24
22775;BME280;11554;51.106;3.684;2023-02-28T14:05:00;102897.72;;;6.76;49.86
22775;BME280;11554;51.106;3.684;2023-02-28T14:10:01;102894.34000000001;;;6.60;49.95
22775;BME280;11554;51.106;3.684;2023-02-28T14:15:00;102891.72000000002;;;6.84;50.46
22775;BME280;11554;51.106;3.684;2023-02-28T14:20:00;102897.73;;;6.69;48.96
22775;BME280;11554;51.106;3.684;2023-02-28T14:25:05;102889.62;;;6.62;49.43
22775;BME280;11554;51.106;3.684;2023-02-28T14:30:07;102895.89000000001;;;6.28;48.84
22775;BME280;11554;51.106;3.684;2023-02-28T14:35:02;102893.59;;;6.18;49.3
22775;BME280;11554;51.106;3.684;2023-02-28T14:40:00;102891.56;;;6.29;50.15
22775;BME280;11554;51.106;3.684;2023-02-28T14:45:00;102889.88999999998;;;6.56;49.71
22775;BME280;11554;51.106;3.684;2023-02-28T14:50:00;102886.25;;;6.52;50.77
22775;BME280;11554;51.106;3.684;2023-02-28T14:55:01;102891.95999999999;;;6.32;49.37
22775;BME280;11554;51.106;3.684;2023-02-28T15:00:00;102886.55000000002;;;6.20;50.08
22775;BME280;11554;51.106;3.684;2023-02-28T15:05:00;102882.54;;;6.28;50.48
22775;BME280;11554;51.106;3.684;2023-02-28T15:10:08;102878.8;;;6.46;51.17
22775;BME280;11554;51.106;3.684;2023-02-28T15:15:00;102881.49;;;6.29;50.56
22775;BME280;11554;51.106;3.684;2023-02-28T15:20:00;102885.89;;;6.13;51.29
22775;BME280;11554;51.106;3.684;2023-02-28T15:25:00;102882.09999999999;;;6.21;50.55
22775;BME280;11554;51.106;3.684;2023-02-28T15:30:01;102880.73999999999;;;5.91;51.05
22775;BME280;11554;51.106;3.684;2023-02-28T15:40:04;102875.84;;;5.71;51.97
22775;BME280;11554;51.106;3.684;2023-02-28T15:45:00;102879.56999999999;;;5.75;51.83
22775;BME280;11554;51.106;3.684;2023-02-28T15:50:00;102881.29;;;5.52;51.97
22775;BME280;11554;51.106;3.684;2023-02-28T15:55:06;102889.25;;;5.43;52.12
22775;BME280;11554;51.106;3.684;2023-02-28T16:00:00;102895.5;;;5.50;52.74
22775;BME280;11554;51.106;3.684;2023-02-28T16:05:02;102894.03;;;5.26;53.3
22775;BME280;11554;51.106;3.684;2023-02-28T16:10:00;102899.07;;;5.29;53.29
22775;BME280;11554;51.106;3.684;2023-02-28T16:15:00;102905.37999999999;;;4.97;53.1
22775;BME280;11554;51.106;3.684;2023-02-28T16:20:00;102903.72;;;4.99;54.36
22775;BME280;11554;51.106;3.684;2023-02-28T16:25:00;102910.18999999999;;;4.92;54.37
22775;BME280;11554;51.106;3.684;2023-02-28T16:30:00;102913.29000000001;;;4.75;54.51
22775;BME280;11554;51.106;3.684;2023-02-28T16:35:00;102916.14;;;4.67;54.8
22775;BME280;11554;51.106;3.684;2023-02-28T16:40:00;102922.21999999999;;;4.56;55.5
22775;BME280;11554;51.106;3.684;2023-02-28T16:45:00;102923.63;;;4.43;55.63
22775;BME280;11554;51.106;3.684;2023-02-28T16:50:00;102920.28;;;4.27;55.63
22775;BME280;11554;51.106;3.684;2023-02-28T16:55:00;102918.59999999999;;;4.12;56.96
22775;BME280;11554;51.106;3.684;2023-02-28T17:00:00;102927.97;;;3.98;56.87
22775;BME280;11554;51.106;3.684;2023-02-28T17:05:00;102926.2;;;3.85;57.15
22775;BME280;11554;51.106;3.684;2023-02-28T17:10:00;102924.96;;;3.72;57.89
22775;BME280;11554;51.106;3.684;2023-02-28T17:15:00;102923.99;;;3.53;58.71
22775;BME280;11554;51.106;3.684;2023-02-28T17:20:00;102939.83;;;3.43;59.13
22775;BME280;11554;51.106;3.684;2023-02-28T17:25:00;102947.66;;;3.30;59.68
22775;BME280;11554;51.106;3.684;2023-02-28T17:30:00;102960.95;;;3.18;59.97
22775;BME280;11554;51.106;3.684;2023-02-28T17:35:00;102972.01;;;3.14;60.11
22775;BME280;11554;51.106;3.684;2023-02-28T17:40:00;102976.37999999999;;;2.96;60.71
22775;BME280;11554;51.106;3.684;2023-02-28T17:45:00;102981.46999999999;;;2.84;61.22
22775;BME280;11554;51.106;3.684;2023-02-28T17:50:00;102991.87999999999;;;2.72;61.76
22775;BME280;11554;51.106;3.684;2023-02-28T17:55:00;102994.31999999999;;;2.58;62.43
22775;BME280;11554;51.106;3.684;2023-02-28T18:00:00;102994.84999999999;;;2.44;62.98
22775;BME280;11554;51.106;3.684;2023-02-28T18:05:00;103004.22000000002;;;2.41;63.49
22775;BME280;11554;51.106;3.684;2023-02-28T18:10:00;103006.73999999999;;;2.31;63.71
22775;BME280;11554;51.106;3.684;2023-02-28T18:15:00;103015.41;;;2.23;63.97
22775;BME280;11554;51.106;3.684;2023-02-28T18:20:00;103013.85;;;2.10;64.47
22775;BME280;11554;51.106;3.684;2023-02-28T18:25:00;103017.87;;;2.05;64.89
22775;BME280;11554;51.106;3.684;2023-02-28T18:30:00;103021.76999999999;;;1.97;65.13
22775;BME280;11554;51.106;3.684;2023-02-28T18:35:00;103022.63;;;1.82;65.57
22775;BME280;11554;51.106;3.684;2023-02-28T18:40:00;103025.16;;;1.73;65.88
22775;BME280;11554;51.106;3.684;2023-02-28T18:45:00;103022.57999999999;;;1.73;66.23
22775;BME280;11554;51.106;3.684;2023-02-28T18:50:00;103028.02999999998;;;1.59;66.52
22775;BME280;11554;51.106;3.684;2023-02-28T18:55:00;103034.14;;;1.44;67.05
22775;BME280;11554;51.106;3.684;2023-02-28T19:00:00;103033.52;;;1.48;67.53
22775;BME280;11554;51.106;3.684;2023-02-28T19:05:00;103036.61;;;1.52;67.23
22775;BME280;11554;51.106;3.684;2023-02-28T19:10:00;103038.64000000001;;;1.45;67.6
22775;BME280;11554;51.106;3.684;2023-02-28T19:15:00;103042.68;;;1.23;67.6
22775;BME280;11554;51.106;3.684;2023-02-28T19:20:00;103045.56;;;1.24;68.42
22775;BME280;11554;51.106;3.684;2023-02-28T19:25:00;103048.31999999999;;;1.23;68.67
22775;BME280;11554;51.106;3.684;2023-02-28T19:30:00;103046.02;;;1.21;68.66
22775;BME280;11554;51.106;3.684;2023-02-28T19:35:00;103045.2;;;1.07;68.91
22775;BME280;11554;51.106;3.684;2023-02-28T19:40:00;103046.83;;;0.92;69.32
22775;BME280;11554;51.106;3.684;2023-02-28T19:45:00;103043.65000000001;;;0.71;70.03
22775;BME280;11554;51.106;3.684;2023-02-28T19:50:00;103041.64000000001;;;0.67;70.74
22775;BME280;11554;51.106;3.684;2023-02-28T19:55:00;103040.21;;;0.57;70.8
22775;BME280;11554;51.106;3.684;2023-02-28T20:00:00;103034.35999999999;;;0.78;70.74
22775;BME280;11554;51.106;3.684;2023-02-28T20:05:00;103037.46;;;0.81;70.77
22775;BME280;11554;51.106;3.684;2023-02-28T20:10:00;103041.22;;;0.84;70.53
22775;BME280;11554;51.106;3.684;2023-02-28T20:15:00;103046.64;;;0.96;70.43
22775;BME280;11554;51.106;3.684;2023-02-28T20:20:00;103054.26999999999;;;1.07;70.17
22775;BME280;11554;51.106;3.684;2023-02-28T20:25:00;103061.1;;;0.83;70.32
22775;BME280;11554;51.106;3.684;2023-02-28T20:30:00;103066.32999999999;;;0.41;71.9
22775;BME280;11554;51.106;3.684;2023-02-28T20:35:00;103065.38;;;0.16;72.95
22775;BME280;11554;51.106;3.684;2023-02-28T20:40:00;103064.98999999999;;;-0.01;73.93
22775;BME280;11554;51.106;3.684;2023-02-28T20:45:00;103061.99999999999;;;0.03;74.55
22775;BME280;11554;51.106;3.684;2023-02-28T20:50:00;103068.59;;;0.07;74.69
22775;BME280;11554;51.106;3.684;2023-02-28T20:55:00;103062.89;;;0.02;74.57
22775;BME280;11554;51.106;3.684;2023-02-28T21:00:00;103067.4;;;-0.07;74.68
22775;BME280;11554;51.106;3.684;2023-02-28T21:05:00;103068.29000000001;;;-0.18;75.11
22775;BME280;11554;51.106;3.684;2023-02-28T21:10:00;103066.92;;;-0.36;74.82
22775;BME280;11554;51.106;3.684;2023-02-28T21:15:00;103071.15;;;-0.66;75.81
22775;BME280;11554;51.106;3.684;2023-02-28T21:20:00;103073.25;;;-0.76;77.57
22775;BME280;11554;51.106;3.684;2023-02-28T21:25:00;103074.45;;;-1.06;76.8
22775;BME280;11554;51.106;3.684;2023-02-28T21:30:00;103075.07;;;-1.20;78.21
22775;BME280;11554;51.106;3.684;2023-02-28T21:35:00;103075.84;;;-1.33;78.42
22775;BME280;11554;51.106;3.684;2023-02-28T21:40:00;103074.94999999998;;;-1.39;79.17
22775;BME280;11554;51.106;3.684;2023-02-28T21:45:00;103079.43000000001;;;-1.47;80.14
22775;BME280;11554;51.106;3.684;2023-02-28T21:50:00;103072.97000000002;;;-1.54;81.05
22775;BME280;11554;51.106;3.684;2023-02-28T21:55:00;103075.66999999998;;;-1.56;81.87
22775;BME280;11554;51.106;3.684;2023-02-28T22:00:00;103080.13;;;-1.54;82.27
22775;BME280;11554;51.106;3.684;2023-02-28T22:05:00;103084.54999999999;;;-1.55;82.4
22775;BME280;11554;51.106;3.684;2023-02-28T22:10:00;103088.34999999999;;;-1.60;82.61
22775;BME280;11554;51.106;3.684;2023-02-28T22:15:00;103092.79;;;-1.73;82.76
22775;BME280;11554;51.106;3.684;2023-02-28T22:20:00;103093.90000000001;;;-1.75;83.48
22775;BME280;11554;51.106;3.684;2023-02-28T22:25:00;103089.25;;;-1.70;84.09
22775;BME280;11554;51.106;3.684;2023-02-28T22:30:00;103085.12000000001;;;-1.79;83.97
22775;BME280;11554;51.106;3.684;2023-02-28T22:35:00;103089.42;;;-1.81;84.63
22775;BME280;11554;51.106;3.684;2023-02-28T22:40:00;103081.88;;;-1.88;84.26
22775;BME280;11554;51.106;3.684;2023-02-28T22:45:00;103077.25;;;-1.99;84.38
22775;BME280;11554;51.106;3.684;2023-02-28T22:50:00;103075.44;;;-2.00;85.1
22775;BME280;11554;51.106;3.684;2023-02-28T22:55:00;103081.42;;;-2.26;84.66
22775;BME280;11554;51.106;3.684;2023-02-28T23:00:00;103083.0;;;-2.27;85.76
22775;BME280;11554;51.106;3.684;2023-02-28T23:05:00;103078.92;;;-2.15;87.12
22775;BME280;11554;51.106;3.684;2023-02-28T23:10:02;103079.42;;;-2.13;87.66
22775;BME280;11554;51.106;3.684;2023-02-28T23:15:00;103087.1;;;-2.18;87.55
22775;BME280;11554;51.106;3.684;2023-02-28T23:20:00;103092.63;;;-2.40;86.75
22775;BME280;11554;51.106;3.684;2023-02-28T23:25:00;103093.96999999999;;;-2.58;87.04
22775;BME280;11554;51.106;3.684;2023-02-28T23:30:00;103091.70999999999;;;-2.64;87.59
22775;BME280;11554;51.106;3.684;2023-02-28T23:35:00;103098.88;;;-2.54;89.13
22775;BME280;11554;51.106;3.684;2023-02-28T23:40:00;103103.15000000001;;;-2.66;89.35
22775;BME280;11554;51.106;3.684;2023-02-28T23:45:00;103104.58000000002;;;-2.70;89.5
22775;BME280;11554;51.106;3.684;2023-02-28T23:50:00;103106.41;;;-2.73;90.16
22775;BME280;11554;51.106;3.684;2023-02-28T23:55:00;103102.27;;;-2.77;90.56
